sensor_id;sensor_type;location;lat;lon;timestamp;P1;durP1;ratioP1;P2;durP2;ratioP2
47251;SDS011;32991;51.374;11.586;2023-05-29T00:01:29;9.70;;;4.45;;
47251;SDS011;32991;51.374;11.586;2023-05-29T00:03:57;8.80;;;4.60;;
47251;SDS011;32991;51.374;11.586;2023-05-29T00:06:24;8.05;;;4.75;;
47251;SDS011;32991;51.374;11.586;2023-05-29T00:08:51;7.72;;;4.70;;
47251;SDS011;32991;51.374;11.586;2023-05-29T00:11:17;11.10;;;5.15;;
47251;SDS011;32991;51.374;11.586;2023-05-29T00:13:44;10.77;;;4.68;;
47251;SDS011;32991;51.374;11.586;2023-05-29T00:16:10;6.50;;;4.32;;
47251;SDS011;32991;51.374;11.586;2023-05-29T00:18:37;8.90;;;4.68;;
47251;SDS011;32991;51.374;11.586;2023-05-29T00:23:39;7.82;;;4.85;;
47251;SDS011;32991;51.374;11.586;2023-05-29T00:26:06;11.13;;;4.75;;
47251;SDS011;32991;51.374;11.586;2023-05-29T00:28:32;10.75;;;4.95;;
47251;SDS011;32991;51.374;11.586;2023-05-29T00:30:59;11.60;;;4.70;;
47251;SDS011;32991;51.374;11.586;2023-05-29T00:33:26;9.48;;;4.78;;
47251;SDS011;32991;51.374;11.586;2023-05-29T00:35:53;10.20;;;4.90;;
47251;SDS011;32991;51.374;11.586;2023-05-29T00:38:20;8.30;;;4.68;;
47251;SDS011;32991;51.374;11.586;2023-05-29T00:40:47;11.73;;;4.63;;
47251;SDS011;32991;51.374;11.586;2023-05-29T00:43:13;9.63;;;4.03;;
47251;SDS011;32991;51.374;11.586;2023-05-29T00:45:40;8.40;;;4.30;;
47251;SDS011;32991;51.374;11.586;2023-05-29T00:48:06;11.40;;;5.07;;
47251;SDS011;32991;51.374;11.586;2023-05-29T00:50:34;10.38;;;4.50;;
47251;SDS011;32991;51.374;11.586;2023-05-29T00:53:01;11.00;;;4.93;;
47251;SDS011;32991;51.374;11.586;2023-05-29T00:55:28;12.18;;;4.90;;
47251;SDS011;32991;51.374;11.586;2023-05-29T00:57:55;10.13;;;4.40;;
47251;SDS011;32991;51.374;11.586;2023-05-29T01:00:22;9.02;;;4.68;;
47251;SDS011;32991;51.374;11.586;2023-05-29T01:02:49;10.43;;;4.72;;
47251;SDS011;32991;51.374;11.586;2023-05-29T01:05:19;10.82;;;4.88;;
47251;SDS011;32991;51.374;11.586;2023-05-29T01:07:45;9.88;;;4.78;;
47251;SDS011;32991;51.374;11.586;2023-05-29T01:10:12;10.32;;;4.93;;
47251;SDS011;32991;51.374;11.586;2023-05-29T01:12:49;9.63;;;4.70;;
47251;SDS011;32991;51.374;11.586;2023-05-29T01:20:52;12.15;;;4.97;;
47251;SDS011;32991;51.374;11.586;2023-05-29T01:26:36;8.38;;;4.80;;
47251;SDS011;32991;51.374;11.586;2023-05-29T01:29:09;7.47;;;4.63;;
47251;SDS011;32991;51.374;11.586;2023-05-29T01:31:37;9.88;;;5.35;;
47251;SDS011;32991;51.374;11.586;2023-05-29T01:34:03;10.75;;;5.68;;
47251;SDS011;32991;51.374;11.586;2023-05-29T01:36:30;11.27;;;5.35;;
47251;SDS011;32991;51.374;11.586;2023-05-29T01:38:59;9.30;;;5.22;;
47251;SDS011;32991;51.374;11.586;2023-05-29T01:41:26;9.85;;;5.00;;
47251;SDS011;32991;51.374;11.586;2023-05-29T01:43:53;12.93;;;5.80;;
47251;SDS011;32991;51.374;11.586;2023-05-29T01:46:20;12.40;;;5.72;;
47251;SDS011;32991;51.374;11.586;2023-05-29T01:48:47;11.73;;;5.43;;
47251;SDS011;32991;51.374;11.586;2023-05-29T01:51:13;10.38;;;5.43;;
47251;SDS011;32991;51.374;11.586;2023-05-29T01:53:41;10.57;;;5.25;;
47251;SDS011;32991;51.374;11.586;2023-05-29T01:56:08;12.45;;;5.93;;
47251;SDS011;32991;51.374;11.586;2023-05-29T01:58:35;14.27;;;5.55;;
47251;SDS011;32991;51.374;11.586;2023-05-29T02:01:06;12.48;;;5.72;;
47251;SDS011;32991;51.374;11.586;2023-05-29T02:03:33;13.57;;;5.15;;
47251;SDS011;32991;51.374;11.586;2023-05-29T02:06:00;11.50;;;5.05;;
47251;SDS011;32991;51.374;11.586;2023-05-29T02:08:27;11.73;;;5.65;;
47251;SDS011;32991;51.374;11.586;2023-05-29T02:10:54;8.82;;;5.40;;
47251;SDS011;32991;51.374;11.586;2023-05-29T02:13:21;14.50;;;6.03;;
47251;SDS011;32991;51.374;11.586;2023-05-29T02:15:48;10.95;;;5.13;;
47251;SDS011;32991;51.374;11.586;2023-05-29T02:18:16;11.32;;;5.70;;
47251;SDS011;32991;51.374;11.586;2023-05-29T02:20:46;11.13;;;5.30;;
47251;SDS011;32991;51.374;11.586;2023-05-29T02:23:20;12.82;;;6.03;;
47251;SDS011;32991;51.374;11.586;2023-05-29T02:25:47;19.08;;;6.43;;
47251;SDS011;32991;51.374;11.586;2023-05-29T02:28:13;14.38;;;5.63;;
47251;SDS011;32991;51.374;11.586;2023-05-29T02:30:40;16.13;;;5.68;;
47251;SDS011;32991;51.374;11.586;2023-05-29T02:33:08;13.80;;;6.20;;
47251;SDS011;32991;51.374;11.586;2023-05-29T02:35:35;10.07;;;5.45;;
47251;SDS011;32991;51.374;11.586;2023-05-29T02:38:03;7.75;;;5.15;;
47251;SDS011;32991;51.374;11.586;2023-05-29T02:40:29;12.68;;;5.95;;
47251;SDS011;32991;51.374;11.586;2023-05-29T02:42:57;12.50;;;5.18;;
47251;SDS011;32991;51.374;11.586;2023-05-29T02:45:23;11.15;;;5.55;;
47251;SDS011;32991;51.374;11.586;2023-05-29T02:47:50;13.57;;;5.55;;
47251;SDS011;32991;51.374;11.586;2023-05-29T02:50:18;11.23;;;5.85;;
47251;SDS011;32991;51.374;11.586;2023-05-29T02:52:45;10.05;;;5.70;;
47251;SDS011;32991;51.374;11.586;2023-05-29T02:55:11;11.27;;;5.53;;
47251;SDS011;32991;51.374;11.586;2023-05-29T02:57:38;13.32;;;5.90;;
47251;SDS011;32991;51.374;11.586;2023-05-29T03:00:05;13.00;;;6.38;;
47251;SDS011;32991;51.374;11.586;2023-05-29T03:02:34;15.20;;;6.10;;
47251;SDS011;32991;51.374;11.586;2023-05-29T03:05:02;11.60;;;6.15;;
47251;SDS011;32991;51.374;11.586;2023-05-29T03:07:28;16.88;;;6.60;;
47251;SDS011;32991;51.374;11.586;2023-05-29T03:09:55;13.18;;;6.07;;
47251;SDS011;32991;51.374;11.586;2023-05-29T03:12:25;14.50;;;5.90;;
47251;SDS011;32991;51.374;11.586;2023-05-29T03:14:54;14.55;;;6.20;;
47251;SDS011;32991;51.374;11.586;2023-05-29T03:17:23;17.02;;;6.63;;
47251;SDS011;32991;51.374;11.586;2023-05-29T03:19:50;11.68;;;5.72;;
47251;SDS011;32991;51.374;11.586;2023-05-29T03:22:17;11.88;;;6.30;;
47251;SDS011;32991;51.374;11.586;2023-05-29T03:24:44;10.43;;;5.75;;
47251;SDS011;32991;51.374;11.586;2023-05-29T03:27:12;10.32;;;6.20;;
47251;SDS011;32991;51.374;11.586;2023-05-29T03:29:40;10.98;;;5.53;;
47251;SDS011;32991;51.374;11.586;2023-05-29T03:32:06;14.02;;;5.57;;
47251;SDS011;32991;51.374;11.586;2023-05-29T03:34:33;10.15;;;5.88;;
47251;SDS011;32991;51.374;11.586;2023-05-29T03:37:02;11.95;;;5.75;;
47251;SDS011;32991;51.374;11.586;2023-05-29T03:39:30;11.25;;;5.60;;
47251;SDS011;32991;51.374;11.586;2023-05-29T03:41:57;12.48;;;6.10;;
47251;SDS011;32991;51.374;11.586;2023-05-29T03:44:24;11.35;;;5.90;;
47251;SDS011;32991;51.374;11.586;2023-05-29T03:46:51;15.40;;;6.50;;
47251;SDS011;32991;51.374;11.586;2023-05-29T03:49:17;11.63;;;5.55;;
47251;SDS011;32991;51.374;11.586;2023-05-29T03:51:44;12.43;;;5.97;;
47251;SDS011;32991;51.374;11.586;2023-05-29T03:54:11;10.88;;;6.15;;
47251;SDS011;32991;51.374;11.586;2023-05-29T03:56:38;9.30;;;5.65;;
47251;SDS011;32991;51.374;11.586;2023-05-29T03:59:05;11.82;;;5.82;;
47251;SDS011;32991;51.374;11.586;2023-05-29T04:01:32;11.73;;;6.13;;
47251;SDS011;32991;51.374;11.586;2023-05-29T04:03:58;17.23;;;6.18;;
47251;SDS011;32991;51.374;11.586;2023-05-29T04:06:25;12.55;;;5.88;;
47251;SDS011;32991;51.374;11.586;2023-05-29T04:08:52;12.82;;;5.70;;
47251;SDS011;32991;51.374;11.586;2023-05-29T04:11:18;15.30;;;6.03;;
47251;SDS011;32991;51.374;11.586;2023-05-29T04:13:47;16.90;;;5.78;;
47251;SDS011;32991;51.374;11.586;2023-05-29T04:16:14;13.02;;;5.70;;
47251;SDS011;32991;51.374;11.586;2023-05-29T04:18:41;14.15;;;6.30;;
47251;SDS011;32991;51.374;11.586;2023-05-29T04:21:08;11.00;;;5.03;;
47251;SDS011;32991;51.374;11.586;2023-05-29T04:23:35;16.38;;;5.95;;
47251;SDS011;32991;51.374;11.586;2023-05-29T04:26:04;16.27;;;6.18;;
47251;SDS011;32991;51.374;11.586;2023-05-29T04:28:34;10.02;;;5.35;;
47251;SDS011;32991;51.374;11.586;2023-05-29T04:31:00;13.35;;;5.18;;
47251;SDS011;32991;51.374;11.586;2023-05-29T04:33:28;13.25;;;5.72;;
47251;SDS011;32991;51.374;11.586;2023-05-29T04:35:56;8.10;;;4.93;;
47251;SDS011;32991;51.374;11.586;2023-05-29T04:38:22;14.10;;;5.63;;
47251;SDS011;32991;51.374;11.586;2023-05-29T04:40:52;11.48;;;5.25;;
47251;SDS011;32991;51.374;11.586;2023-05-29T04:43:24;11.60;;;5.70;;
47251;SDS011;32991;51.374;11.586;2023-05-29T04:46:00;10.50;;;5.60;;
47251;SDS011;32991;51.374;11.586;2023-05-29T04:48:31;17.33;;;5.75;;
47251;SDS011;32991;51.374;11.586;2023-05-29T04:50:58;10.25;;;4.78;;
47251;SDS011;32991;51.374;11.586;2023-05-29T04:53:26;12.13;;;5.78;;
47251;SDS011;32991;51.374;11.586;2023-05-29T04:55:53;9.30;;;5.30;;
47251;SDS011;32991;51.374;11.586;2023-05-29T04:58:20;13.43;;;5.65;;
47251;SDS011;32991;51.374;11.586;2023-05-29T05:00:49;12.73;;;5.63;;
47251;SDS011;32991;51.374;11.586;2023-05-29T05:03:15;14.32;;;5.63;;
47251;SDS011;32991;51.374;11.586;2023-05-29T05:05:43;11.73;;;5.65;;
47251;SDS011;32991;51.374;11.586;2023-05-29T05:08:14;12.07;;;5.03;;
47251;SDS011;32991;51.374;11.586;2023-05-29T05:10:41;9.38;;;5.00;;
47251;SDS011;32991;51.374;11.586;2023-05-29T05:13:07;9.75;;;4.70;;
47251;SDS011;32991;51.374;11.586;2023-05-29T05:15:36;12.88;;;5.18;;
47251;SDS011;32991;51.374;11.586;2023-05-29T05:18:03;11.98;;;5.40;;
47251;SDS011;32991;51.374;11.586;2023-05-29T05:20:32;12.30;;;4.97;;
47251;SDS011;32991;51.374;11.586;2023-05-29T05:22:59;12.13;;;4.75;;
47251;SDS011;32991;51.374;11.586;2023-05-29T05:25:26;17.95;;;4.90;;
47251;SDS011;32991;51.374;11.586;2023-05-29T05:27:53;7.72;;;4.00;;
47251;SDS011;32991;51.374;11.586;2023-05-29T05:30:20;10.65;;;4.57;;
47251;SDS011;32991;51.374;11.586;2023-05-29T05:32:47;11.43;;;5.22;;
47251;SDS011;32991;51.374;11.586;2023-05-29T05:35:14;10.32;;;4.80;;
47251;SDS011;32991;51.374;11.586;2023-05-29T05:37:42;13.27;;;4.63;;
47251;SDS011;32991;51.374;11.586;2023-05-29T05:40:10;8.40;;;4.47;;
47251;SDS011;32991;51.374;11.586;2023-05-29T05:42:46;10.93;;;5.40;;
47251;SDS011;32991;51.374;11.586;2023-05-29T05:45:13;8.20;;;4.22;;
47251;SDS011;32991;51.374;11.586;2023-05-29T05:47:41;9.80;;;4.90;;
47251;SDS011;32991;51.374;11.586;2023-05-29T05:50:08;10.20;;;4.38;;
47251;SDS011;32991;51.374;11.586;2023-05-29T05:52:35;11.10;;;4.70;;
47251;SDS011;32991;51.374;11.586;2023-05-29T05:55:02;9.30;;;4.72;;
47251;SDS011;32991;51.374;11.586;2023-05-29T05:57:29;9.23;;;4.57;;
47251;SDS011;32991;51.374;11.586;2023-05-29T06:00:07;9.82;;;4.70;;
47251;SDS011;32991;51.374;11.586;2023-05-29T06:02:41;10.80;;;4.40;;
47251;SDS011;32991;51.374;11.586;2023-05-29T06:05:11;8.10;;;3.85;;
47251;SDS011;32991;51.374;11.586;2023-05-29T06:07:38;8.85;;;4.45;;
47251;SDS011;32991;51.374;11.586;2023-05-29T06:10:04;9.55;;;4.63;;
47251;SDS011;32991;51.374;11.586;2023-05-29T06:12:31;7.10;;;4.20;;
47251;SDS011;32991;51.374;11.586;2023-05-29T06:15:07;7.63;;;4.30;;
47251;SDS011;32991;51.374;11.586;2023-05-29T06:17:34;8.55;;;4.13;;
47251;SDS011;32991;51.374;11.586;2023-05-29T06:20:02;9.43;;;4.45;;
47251;SDS011;32991;51.374;11.586;2023-05-29T06:22:32;8.63;;;4.20;;
47251;SDS011;32991;51.374;11.586;2023-05-29T06:24:59;8.70;;;4.10;;
47251;SDS011;32991;51.374;11.586;2023-05-29T06:27:29;10.00;;;4.25;;
47251;SDS011;32991;51.374;11.586;2023-05-29T06:29:57;7.57;;;4.07;;
47251;SDS011;32991;51.374;11.586;2023-05-29T06:32:24;6.55;;;4.18;;
47251;SDS011;32991;51.374;11.586;2023-05-29T06:34:51;9.52;;;4.60;;
47251;SDS011;32991;51.374;11.586;2023-05-29T06:37:17;9.32;;;4.20;;
47251;SDS011;32991;51.374;11.586;2023-05-29T06:39:44;11.23;;;4.40;;
47251;SDS011;32991;51.374;11.586;2023-05-29T06:42:11;6.10;;;3.80;;
47251;SDS011;32991;51.374;11.586;2023-05-29T06:44:41;7.57;;;4.20;;
47251;SDS011;32991;51.374;11.586;2023-05-29T06:47:08;7.28;;;4.18;;
47251;SDS011;32991;51.374;11.586;2023-05-29T06:49:35;8.27;;;4.57;;
47251;SDS011;32991;51.374;11.586;2023-05-29T06:52:02;10.20;;;4.45;;
47251;SDS011;32991;51.374;11.586;2023-05-29T06:55:01;9.32;;;4.13;;
47251;SDS011;32991;51.374;11.586;2023-05-29T06:57:28;10.32;;;3.88;;
47251;SDS011;32991;51.374;11.586;2023-05-29T06:59:54;7.00;;;3.92;;
47251;SDS011;32991;51.374;11.586;2023-05-29T07:02:22;9.18;;;4.40;;
47251;SDS011;32991;51.374;11.586;2023-05-29T07:04:55;5.85;;;3.20;;
47251;SDS011;32991;51.374;11.586;2023-05-29T07:07:22;8.75;;;3.90;;
47251;SDS011;32991;51.374;11.586;2023-05-29T07:09:48;7.63;;;4.03;;
47251;SDS011;32991;51.374;11.586;2023-05-29T07:12:15;7.40;;;3.83;;
47251;SDS011;32991;51.374;11.586;2023-05-29T07:14:42;6.57;;;4.18;;
47251;SDS011;32991;51.374;11.586;2023-05-29T07:17:09;9.30;;;3.80;;
47251;SDS011;32991;51.374;11.586;2023-05-29T07:19:36;9.02;;;4.00;;
47251;SDS011;32991;51.374;11.586;2023-05-29T07:22:04;7.38;;;3.83;;
47251;SDS011;32991;51.374;11.586;2023-05-29T07:24:31;7.35;;;4.07;;
47251;SDS011;32991;51.374;11.586;2023-05-29T07:27:00;8.95;;;4.00;;
47251;SDS011;32991;51.374;11.586;2023-05-29T07:29:26;7.97;;;3.75;;
47251;SDS011;32991;51.374;11.586;2023-05-29T07:31:53;9.00;;;4.00;;
47251;SDS011;32991;51.374;11.586;2023-05-29T07:34:21;6.63;;;3.85;;
47251;SDS011;32991;51.374;11.586;2023-05-29T07:37:04;8.02;;;3.75;;
47251;SDS011;32991;51.374;11.586;2023-05-29T07:39:33;6.38;;;3.67;;
47251;SDS011;32991;51.374;11.586;2023-05-29T07:42:08;7.18;;;4.03;;
47251;SDS011;32991;51.374;11.586;2023-05-29T07:44:38;8.48;;;3.92;;
47251;SDS011;32991;51.374;11.586;2023-05-29T07:47:06;12.80;;;4.13;;
47251;SDS011;32991;51.374;11.586;2023-05-29T07:49:38;8.88;;;4.18;;
47251;SDS011;32991;51.374;11.586;2023-05-29T07:52:05;8.43;;;3.80;;
47251;SDS011;32991;51.374;11.586;2023-05-29T07:54:32;6.25;;;3.60;;
47251;SDS011;32991;51.374;11.586;2023-05-29T07:57:00;7.32;;;3.85;;
47251;SDS011;32991;51.374;11.586;2023-05-29T07:59:29;7.35;;;3.78;;
47251;SDS011;32991;51.374;11.586;2023-05-29T08:01:58;7.05;;;3.42;;
47251;SDS011;32991;51.374;11.586;2023-05-29T08:04:41;8.35;;;3.65;;
47251;SDS011;32991;51.374;11.586;2023-05-29T08:07:09;9.90;;;3.85;;
47251;SDS011;32991;51.374;11.586;2023-05-29T08:09:35;6.93;;;3.80;;
47251;SDS011;32991;51.374;11.586;2023-05-29T08:12:02;6.07;;;3.30;;
47251;SDS011;32991;51.374;11.586;2023-05-29T08:14:29;8.50;;;3.83;;
47251;SDS011;32991;51.374;11.586;2023-05-29T08:16:56;7.15;;;3.58;;
47251;SDS011;32991;51.374;11.586;2023-05-29T08:19:23;7.82;;;3.95;;
47251;SDS011;32991;51.374;11.586;2023-05-29T08:21:49;4.90;;;3.20;;
47251;SDS011;32991;51.374;11.586;2023-05-29T08:24:16;7.07;;;3.28;;
47251;SDS011;32991;51.374;11.586;2023-05-29T08:26:43;10.43;;;3.25;;
47251;SDS011;32991;51.374;11.586;2023-05-29T08:29:09;8.25;;;3.40;;
47251;SDS011;32991;51.374;11.586;2023-05-29T08:31:37;6.05;;;3.08;;
47251;SDS011;32991;51.374;11.586;2023-05-29T08:34:03;7.63;;;3.72;;
47251;SDS011;32991;51.374;11.586;2023-05-29T08:36:30;6.22;;;3.08;;
47251;SDS011;32991;51.374;11.586;2023-05-29T08:38:57;9.25;;;3.08;;
47251;SDS011;32991;51.374;11.586;2023-05-29T08:41:37;8.05;;;3.33;;
47251;SDS011;32991;51.374;11.586;2023-05-29T08:44:08;5.43;;;3.15;;
47251;SDS011;32991;51.374;11.586;2023-05-29T08:46:39;4.95;;;3.17;;
47251;SDS011;32991;51.374;11.586;2023-05-29T08:49:06;8.70;;;3.28;;
47251;SDS011;32991;51.374;11.586;2023-05-29T08:51:36;6.25;;;3.47;;
47251;SDS011;32991;51.374;11.586;2023-05-29T08:54:04;8.00;;;3.63;;
47251;SDS011;32991;51.374;11.586;2023-05-29T08:56:30;5.80;;;2.95;;
47251;SDS011;32991;51.374;11.586;2023-05-29T08:59:00;6.45;;;3.65;;
47251;SDS011;32991;51.374;11.586;2023-05-29T09:01:30;6.00;;;3.30;;
47251;SDS011;32991;51.374;11.586;2023-05-29T09:03:57;5.95;;;3.63;;
47251;SDS011;32991;51.374;11.586;2023-05-29T09:06:24;6.45;;;3.42;;
47251;SDS011;32991;51.374;11.586;2023-05-29T09:08:52;7.57;;;3.58;;
47251;SDS011;32991;51.374;11.586;2023-05-29T09:11:19;4.28;;;3.30;;
47251;SDS011;32991;51.374;11.586;2023-05-29T09:13:46;5.57;;;3.20;;
47251;SDS011;32991;51.374;11.586;2023-05-29T09:16:12;8.07;;;4.10;;
47251;SDS011;32991;51.374;11.586;2023-05-29T09:18:39;5.30;;;2.90;;
47251;SDS011;32991;51.374;11.586;2023-05-29T09:21:07;7.30;;;3.20;;
47251;SDS011;32991;51.374;11.586;2023-05-29T09:23:35;8.02;;;3.28;;
47251;SDS011;32991;51.374;11.586;2023-05-29T09:26:02;4.75;;;3.30;;
47251;SDS011;32991;51.374;11.586;2023-05-29T09:28:30;5.43;;;3.28;;
47251;SDS011;32991;51.374;11.586;2023-05-29T09:30:57;7.80;;;3.63;;
47251;SDS011;32991;51.374;11.586;2023-05-29T09:33:24;6.53;;;3.13;;
47251;SDS011;32991;51.374;11.586;2023-05-29T09:35:51;5.00;;;3.03;;
47251;SDS011;32991;51.374;11.586;2023-05-29T09:38:18;5.45;;;3.15;;
47251;SDS011;32991;51.374;11.586;2023-05-29T09:41:05;6.15;;;2.88;;
47251;SDS011;32991;51.374;11.586;2023-05-29T09:43:32;5.20;;;2.65;;
47251;SDS011;32991;51.374;11.586;2023-05-29T09:46:00;4.80;;;2.75;;
47251;SDS011;32991;51.374;11.586;2023-05-29T09:48:28;5.97;;;3.10;;
47251;SDS011;32991;51.374;11.586;2023-05-29T09:50:55;3.92;;;2.72;;
47251;SDS011;32991;51.374;11.586;2023-05-29T09:53:25;4.22;;;2.58;;
47251;SDS011;32991;51.374;11.586;2023-05-29T09:55:52;6.82;;;2.90;;
47251;SDS011;32991;51.374;11.586;2023-05-29T09:58:21;4.78;;;3.03;;
47251;SDS011;32991;51.374;11.586;2023-05-29T10:00:49;4.70;;;2.85;;
47251;SDS011;32991;51.374;11.586;2023-05-29T10:03:17;5.10;;;2.50;;
47251;SDS011;32991;51.374;11.586;2023-05-29T10:05:47;8.88;;;2.75;;
47251;SDS011;32991;51.374;11.586;2023-05-29T10:08:17;8.05;;;3.20;;
47251;SDS011;32991;51.374;11.586;2023-05-29T10:10:52;5.50;;;2.65;;
47251;SDS011;32991;51.374;11.586;2023-05-29T10:13:23;4.40;;;2.50;;
47251;SDS011;32991;51.374;11.586;2023-05-29T10:15:52;4.22;;;2.60;;
47251;SDS011;32991;51.374;11.586;2023-05-29T10:18:23;3.58;;;2.85;;
47251;SDS011;32991;51.374;11.586;2023-05-29T10:20:50;5.68;;;2.72;;
47251;SDS011;32991;51.374;11.586;2023-05-29T10:23:24;3.60;;;2.58;;
47251;SDS011;32991;51.374;11.586;2023-05-29T10:25:53;3.35;;;2.30;;
47251;SDS011;32991;51.374;11.586;2023-05-29T10:28:21;4.38;;;2.70;;
47251;SDS011;32991;51.374;11.586;2023-05-29T10:31:00;3.67;;;2.50;;
47251;SDS011;32991;51.374;11.586;2023-05-29T10:36:14;3.55;;;2.30;;
47251;SDS011;32991;51.374;11.586;2023-05-29T10:38:46;4.13;;;2.63;;
47251;SDS011;32991;51.374;11.586;2023-05-29T10:43:57;5.93;;;2.78;;
47251;SDS011;32991;51.374;11.586;2023-05-29T10:47:07;4.68;;;2.50;;
47251;SDS011;32991;51.374;11.586;2023-05-29T10:49:15;3.45;;;2.35;;
47251;SDS011;32991;51.374;11.586;2023-05-29T10:51:42;3.97;;;2.47;;
47251;SDS011;32991;51.374;11.586;2023-05-29T10:54:09;6.95;;;2.58;;
47251;SDS011;32991;51.374;11.586;2023-05-29T10:56:36;4.35;;;2.53;;
47251;SDS011;32991;51.374;11.586;2023-05-29T10:59:03;4.40;;;2.33;;
47251;SDS011;32991;51.374;11.586;2023-05-29T11:01:29;6.28;;;2.67;;
47251;SDS011;32991;51.374;11.586;2023-05-29T11:06:46;5.13;;;2.58;;
47251;SDS011;32991;51.374;11.586;2023-05-29T11:09:29;3.20;;;2.40;;
47251;SDS011;32991;51.374;11.586;2023-05-29T11:12:10;4.45;;;2.40;;
47251;SDS011;32991;51.374;11.586;2023-05-29T11:14:46;4.90;;;2.42;;
47251;SDS011;32991;51.374;11.586;2023-05-29T11:17:28;4.82;;;2.72;;
47251;SDS011;32991;51.374;11.586;2023-05-29T11:19:56;5.05;;;2.70;;
47251;SDS011;32991;51.374;11.586;2023-05-29T11:22:31;4.95;;;2.75;;
47251;SDS011;32991;51.374;11.586;2023-05-29T11:25:17;6.88;;;2.60;;
47251;SDS011;32991;51.374;11.586;2023-05-29T11:27:44;4.05;;;2.30;;
47251;SDS011;32991;51.374;11.586;2023-05-29T11:30:11;4.13;;;2.25;;
47251;SDS011;32991;51.374;11.586;2023-05-29T11:32:39;4.78;;;2.70;;
47251;SDS011;32991;51.374;11.586;2023-05-29T11:35:07;4.82;;;2.70;;
47251;SDS011;32991;51.374;11.586;2023-05-29T11:37:35;10.02;;;3.25;;
47251;SDS011;32991;51.374;11.586;2023-05-29T11:40:03;5.38;;;2.45;;
47251;SDS011;32991;51.374;11.586;2023-05-29T11:42:31;5.40;;;3.00;;
47251;SDS011;32991;51.374;11.586;2023-05-29T11:45:19;2.92;;;2.25;;
47251;SDS011;32991;51.374;11.586;2023-05-29T11:48:20;4.60;;;2.53;;
47251;SDS011;32991;51.374;11.586;2023-05-29T11:50:39;5.13;;;2.72;;
47251;SDS011;32991;51.374;11.586;2023-05-29T11:53:06;4.05;;;2.35;;
47251;SDS011;32991;51.374;11.586;2023-05-29T11:55:33;4.25;;;2.50;;
47251;SDS011;32991;51.374;11.586;2023-05-29T11:58:01;6.63;;;2.58;;
47251;SDS011;32991;51.374;11.586;2023-05-29T12:00:31;4.25;;;2.63;;
47251;SDS011;32991;51.374;11.586;2023-05-29T12:02:58;5.18;;;2.80;;
47251;SDS011;32991;51.374;11.586;2023-05-29T12:05:32;4.88;;;2.70;;
47251;SDS011;32991;51.374;11.586;2023-05-29T12:08:10;4.10;;;2.38;;
47251;SDS011;32991;51.374;11.586;2023-05-29T12:10:36;3.45;;;2.30;;
47251;SDS011;32991;51.374;11.586;2023-05-29T12:13:03;3.97;;;2.50;;
47251;SDS011;32991;51.374;11.586;2023-05-29T12:15:30;3.28;;;2.22;;
47251;SDS011;32991;51.374;11.586;2023-05-29T12:17:57;4.93;;;2.70;;
47251;SDS011;32991;51.374;11.586;2023-05-29T12:20:24;5.00;;;2.63;;
47251;SDS011;32991;51.374;11.586;2023-05-29T12:22:58;3.78;;;2.55;;
47251;SDS011;32991;51.374;11.586;2023-05-29T12:25:26;7.43;;;2.70;;
47251;SDS011;32991;51.374;11.586;2023-05-29T12:27:55;5.07;;;2.53;;
47251;SDS011;32991;51.374;11.586;2023-05-29T12:30:22;5.60;;;2.60;;
47251;SDS011;32991;51.374;11.586;2023-05-29T12:32:59;8.52;;;2.88;;
47251;SDS011;32991;51.374;11.586;2023-05-29T12:35:27;5.68;;;2.72;;
47251;SDS011;32991;51.374;11.586;2023-05-29T12:37:55;6.43;;;2.80;;
47251;SDS011;32991;51.374;11.586;2023-05-29T12:40:23;4.30;;;2.72;;
47251;SDS011;32991;51.374;11.586;2023-05-29T12:45:29;5.82;;;2.60;;
47251;SDS011;32991;51.374;11.586;2023-05-29T12:47:57;3.10;;;2.58;;
47251;SDS011;32991;51.374;11.586;2023-05-29T12:50:25;3.67;;;2.20;;
47251;SDS011;32991;51.374;11.586;2023-05-29T12:52:57;4.18;;;2.60;;
47251;SDS011;32991;51.374;11.586;2023-05-29T12:55:24;6.20;;;2.58;;
47251;SDS011;32991;51.374;11.586;2023-05-29T12:57:52;6.45;;;2.72;;
47251;SDS011;32991;51.374;11.586;2023-05-29T13:00:19;4.95;;;3.03;;
47251;SDS011;32991;51.374;11.586;2023-05-29T13:02:46;5.60;;;2.63;;
47251;SDS011;32991;51.374;11.586;2023-05-29T13:05:14;6.05;;;2.83;;
47251;SDS011;32991;51.374;11.586;2023-05-29T13:07:42;8.05;;;2.63;;
47251;SDS011;32991;51.374;11.586;2023-05-29T13:10:09;5.07;;;2.72;;
47251;SDS011;32991;51.374;11.586;2023-05-29T13:12:36;4.90;;;2.85;;
47251;SDS011;32991;51.374;11.586;2023-05-29T13:15:02;5.68;;;2.80;;
47251;SDS011;32991;51.374;11.586;2023-05-29T13:17:29;5.35;;;3.00;;
47251;SDS011;32991;51.374;11.586;2023-05-29T13:19:58;4.93;;;3.05;;
47251;SDS011;32991;51.374;11.586;2023-05-29T13:22:24;5.45;;;2.60;;
47251;SDS011;32991;51.374;11.586;2023-05-29T13:24:57;6.30;;;3.08;;
47251;SDS011;32991;51.374;11.586;2023-05-29T13:27:25;4.68;;;3.00;;
47251;SDS011;32991;51.374;11.586;2023-05-29T13:29:52;6.40;;;2.58;;
47251;SDS011;32991;51.374;11.586;2023-05-29T13:32:21;5.78;;;3.03;;
47251;SDS011;32991;51.374;11.586;2023-05-29T13:34:48;6.78;;;3.10;;
47251;SDS011;32991;51.374;11.586;2023-05-29T13:37:14;7.82;;;3.03;;
47251;SDS011;32991;51.374;11.586;2023-05-29T13:39:41;6.10;;;2.97;;
47251;SDS011;32991;51.374;11.586;2023-05-29T13:42:07;4.03;;;2.63;;
47251;SDS011;32991;51.374;11.586;2023-05-29T13:44:34;9.77;;;3.17;;
47251;SDS011;32991;51.374;11.586;2023-05-29T13:47:02;10.43;;;3.40;;
47251;SDS011;32991;51.374;11.586;2023-05-29T13:49:28;6.32;;;2.83;;
47251;SDS011;32991;51.374;11.586;2023-05-29T13:51:55;8.25;;;3.20;;
47251;SDS011;32991;51.374;11.586;2023-05-29T13:54:22;9.32;;;3.20;;
47251;SDS011;32991;51.374;11.586;2023-05-29T13:56:48;4.93;;;3.00;;
47251;SDS011;32991;51.374;11.586;2023-05-29T13:59:15;10.60;;;3.25;;
47251;SDS011;32991;51.374;11.586;2023-05-29T14:01:41;5.22;;;3.08;;
47251;SDS011;32991;51.374;11.586;2023-05-29T14:04:08;5.35;;;3.08;;
47251;SDS011;32991;51.374;11.586;2023-05-29T14:06:35;5.47;;;2.80;;
47251;SDS011;32991;51.374;11.586;2023-05-29T14:09:03;7.95;;;3.10;;
47251;SDS011;32991;51.374;11.586;2023-05-29T14:11:30;4.18;;;2.75;;
47251;SDS011;32991;51.374;11.586;2023-05-29T14:13:56;4.90;;;3.13;;
47251;SDS011;32991;51.374;11.586;2023-05-29T14:16:23;4.80;;;3.28;;
47251;SDS011;32991;51.374;11.586;2023-05-29T14:18:49;7.05;;;3.20;;
47251;SDS011;32991;51.374;11.586;2023-05-29T14:21:16;7.90;;;3.35;;
47251;SDS011;32991;51.374;11.586;2023-05-29T14:23:43;5.45;;;3.10;;
47251;SDS011;32991;51.374;11.586;2023-05-29T14:26:09;6.90;;;2.92;;
47251;SDS011;32991;51.374;11.586;2023-05-29T14:28:36;6.75;;;3.42;;
47251;SDS011;32991;51.374;11.586;2023-05-29T14:31:03;7.10;;;3.50;;
47251;SDS011;32991;51.374;11.586;2023-05-29T14:33:31;6.57;;;3.45;;
47251;SDS011;32991;51.374;11.586;2023-05-29T14:35:58;6.80;;;3.08;;
47251;SDS011;32991;51.374;11.586;2023-05-29T14:38:25;5.65;;;3.10;;
47251;SDS011;32991;51.374;11.586;2023-05-29T14:40:51;8.93;;;3.40;;
47251;SDS011;32991;51.374;11.586;2023-05-29T14:43:34;6.17;;;3.20;;
47251;SDS011;32991;51.374;11.586;2023-05-29T14:46:01;6.18;;;3.03;;
47251;SDS011;32991;51.374;11.586;2023-05-29T14:48:28;5.40;;;3.15;;
47251;SDS011;32991;51.374;11.586;2023-05-29T14:50:54;6.55;;;3.33;;
47251;SDS011;32991;51.374;11.586;2023-05-29T14:53:21;5.82;;;3.60;;
47251;SDS011;32991;51.374;11.586;2023-05-29T14:55:49;4.07;;;2.63;;
47251;SDS011;32991;51.374;11.586;2023-05-29T14:58:16;5.25;;;3.15;;
47251;SDS011;32991;51.374;11.586;2023-05-29T15:00:42;7.63;;;3.25;;